Saturday, February 13, 2016
19:34 UTC
  |  Log In   |  Register Free
Airport Search:

Enterprise Municipal Airport
(KEDN)

Enterprise Municipal Airport Diagram
No Airport Diagram Available

FAA data valid effective Feb 4 2016 - Mar 31 2016 (unless otherwise noted).

 
 
 
 
 
 
 
 
 
 
 
 
 
 
Current Aviation Weather for KEDN

Weather Summary


The most recent METAR observation for EDN was updated at: 12:53 UTC
METAR for KEDN is not available. Closest METAR is for KSXS
KEDN  (most recent observation was updatred at 13:19 UTC)
131915Z AUTO 02004KT 10SM CLR 11/M11 A3034 RMK AO2

KSXS  (4.6 nm SW)   (most recent observation was updated at 13:18 UTC)
131856Z AUTO 33007G13KT 10SM CLR 12/M12 A3036 RMK AO2 SLP283 T01161118

KLOR  (8.3 nm SW)   (most recent observation was updated at 13:18 UTC)
131853Z AUTO 34008KT 310V010 10SM CLR 13/M10 A3034 RMK AO2 SLP273 T01331100

TAF for KEDN is not available.
KOZR  (9.7 nm NW)   (most recent observation was updatred at 13:16 UTC)
131600Z 1316/1422 36010G15KT 9999 SKC QNH3030INS BECMG 1323/1324 35009KT 9999 SKC QNH3025INS BECMG 1408/1409 06006KT 9999 FEW250 QNH3020INS BECMG 1420/1421 14009KT 9999 FEW100 SCT200 QNH3019INS TX15/1416Z TNM02/1321Z


KDHN  (23.1 nm SW)   (most recent observation was updatred at 13:17 UTC)
131725Z 1318/1418 35011G22KT P6SM SKC FM132300 02005KT P6SM SKC FM141500 09007KT P6SM SKC


KTOI  (34.1 nm SE)   (most recent observation was updatred at 13:17 UTC)
131724Z 1318/1418 35012G18KT P6SM SKC FM132300 35003KT P6SM SKC
GlobalAir.com is loading additional information.
 Current Weather at EDN
50.0 F° (10.0 C°)

North winds at 8.1 mph
Pressure:
30.38 in
Humidity:
22%
Wind:
North at 8.1 mph
Dew Point:
12.2 F° (-11.0 C°)
Visibility:
10.00 mi
EDN NOAA Radar




Find All Airport Services Find A Hotel Find A Rental Car Find A Golf Course Find A Restaurant $100 Hamburger



Airport Weather Forecast for KEDN

Translated METAR for KEDN (1915 UTC)
METAR:
KEDN 131915Z AUTO 02004KT 10SM CLR 11/M11 A3034 RMK AO2
Conditions at:
KEDN (Enterprise Muni, AL) observed 1915 UTC 13 February 2016
Temperature:
11°C (51.8°F)
Dewpoint:
-11°C (12.2°F) [RH = 20.2]
Pressure:
30.34 inches Hg (1027.4 mb)
Winds:
from the NNE (020 degrees) at 4.6 mph (4 knots: 2.1 m/s)
Visibility:
10 mile(s)
Ceiling:
at least 12,000 feet AGL
Clouds:
Clear below 12,000 feet AGL
Remarks:
site is un-manned
site is automated and HAS a precipitation sensor

Translated TAF for KOZR (Cairns Aaf (Fort Rucker), AL) (1600 UTC)
TAF text:
KOZR 131600Z 1316/1422 36010G15KT 9999 SKC QNH3030INS BECMG 1323/1324 35009KT 9999 SKC QNH3025INS BECMG 1408/1409 06006KT 9999 FEW250 QNH3020INS BECMG 1420/1421 14009KT 9999 FEW100 SCT200 QNH3019INS TX15/1416Z TNM02/1321Z
Forecast period:
Saturday Feb 13 2016 16:00 UTC - Sunday Feb 14 2016 22:00 UTC
Forecast type:
FROM: standard forecast or significant change
Winds:
from the SE (140 degrees) at 10.4 mph (9 knots: 4.6 m/s)
Visibility:
Ceiling:
at least 12,000 feet AGL
at least 12,000 feet AGL
at least 12,000 feet AGL
at least 12,000 feet AGL
Clouds:
Clear Skies
Clear Skies
Few Clouds at 25,000 feet AGL
Few Clouds at 10,000 feet AGL
Scattered Clouds at 20,000 feet AGL
Weather:
no significant weather observed at this time
FBO's on the Field
FBO Company Facility Photos Services Transportation Aviation Fuel Prices: Prices include tax
Catering Weather Repair Courtesy Rental Type 100LL JetA JetA+ MOGAS 8087
 
Enterprise Municipal Airport

This FBO has not yet been rated
FS:Epic
Last Updated: Feb-03
Login to update fuel prices
SS:
Contact Enterprise Municipal AirportMore FBO Information
 
Add another FBO Facility Photos Catering Weather Repair Courtesy Rental Type 100LL JetA JetA+ MOGAS 8087
Services Transportation Aviation Fuel Prices: Prices include tax


model-print
model-print
model-print
model-print